sensor_id;sensor_type;location;lat;lon;timestamp;temperature;humidity
56308;DHT22;42217;50.422;7.210;2022-09-12T00:01:14;11.50;99.90
56308;DHT22;42217;50.422;7.210;2022-09-12T00:03:40;11.50;99.90
56308;DHT22;42217;50.422;7.210;2022-09-12T00:06:08;11.50;99.90
56308;DHT22;42217;50.422;7.210;2022-09-12T00:08:34;11.60;99.90
56308;DHT22;42217;50.422;7.210;2022-09-12T00:11:04;11.50;99.90
56308;DHT22;42217;50.422;7.210;2022-09-12T00:13:30;11.20;99.90
56308;DHT22;42217;50.422;7.210;2022-09-12T00:15:55;11.10;99.90
56308;DHT22;42217;50.422;7.210;2022-09-12T00:18:21;11.10;99.90
56308;DHT22;42217;50.422;7.210;2022-09-12T00:20:47;11.20;99.90
56308;DHT22;42217;50.422;7.210;2022-09-12T00:23:13;11.50;99.90
56308;DHT22;42217;50.422;7.210;2022-09-12T00:25:46;11.70;99.90
56308;DHT22;42217;50.422;7.210;2022-09-12T00:28:13;11.70;99.90
56308;DHT22;42217;50.422;7.210;2022-09-12T00:30:47;11.60;99.90
56308;DHT22;42217;50.422;7.210;2022-09-12T00:33:14;11.50;99.90
56308;DHT22;42217;50.422;7.210;2022-09-12T00:35:44;11.50;99.90
56308;DHT22;42217;50.422;7.210;2022-09-12T00:38:12;11.60;99.90
56308;DHT22;42217;50.422;7.210;2022-09-12T00:40:38;11.60;99.90
56308;DHT22;42217;50.422;7.210;2022-09-12T00:43:04;11.50;99.90
56308;DHT22;42217;50.422;7.210;2022-09-12T00:45:30;11.30;99.90
56308;DHT22;42217;50.422;7.210;2022-09-12T00:48:00;11.00;99.90
56308;DHT22;42217;50.422;7.210;2022-09-12T00:50:28;10.90;99.90
56308;DHT22;42217;50.422;7.210;2022-09-12T00:53:11;10.70;99.90
56308;DHT22;42217;50.422;7.210;2022-09-12T00:55:40;10.60;99.90
56308;DHT22;42217;50.422;7.210;2022-09-12T00:58:10;10.60;99.90
56308;DHT22;42217;50.422;7.210;2022-09-12T01:00:37;10.90;99.90
56308;DHT22;42217;50.422;7.210;2022-09-12T01:03:10;11.00;99.90
56308;DHT22;42217;50.422;7.210;2022-09-12T01:05:41;10.90;99.90
56308;DHT22;42217;50.422;7.210;2022-09-12T01:08:09;11.10;99.90
56308;DHT22;42217;50.422;7.210;2022-09-12T01:10:37;11.20;99.90
56308;DHT22;42217;50.422;7.210;2022-09-12T01:13:05;11.00;99.90
56308;DHT22;42217;50.422;7.210;2022-09-12T01:15:31;10.80;99.90
56308;DHT22;42217;50.422;7.210;2022-09-12T01:18:23;10.90;99.90
56308;DHT22;42217;50.422;7.210;2022-09-12T01:21:08;11.10;99.90
56308;DHT22;42217;50.422;7.210;2022-09-12T01:38:17;11.30;99.90
56308;DHT22;42217;50.422;7.210;2022-09-12T01:40:45;10.90;99.90
56308;DHT22;42217;50.422;7.210;2022-09-12T01:52:13;9.90;99.90
56308;DHT22;42217;50.422;7.210;2022-09-12T01:55:10;9.90;99.90
56308;DHT22;42217;50.422;7.210;2022-09-12T01:57:44;10.10;99.90
56308;DHT22;42217;50.422;7.210;2022-09-12T02:00:13;10.20;99.90
56308;DHT22;42217;50.422;7.210;2022-09-12T02:02:51;10.50;99.90
56308;DHT22;42217;50.422;7.210;2022-09-12T02:08:25;10.20;99.90
56308;DHT22;42217;50.422;7.210;2022-09-12T02:10:56;10.10;99.90
56308;DHT22;42217;50.422;7.210;2022-09-12T02:13:43;10.00;99.90
56308;DHT22;42217;50.422;7.210;2022-09-12T02:16:19;9.90;99.90
56308;DHT22;42217;50.422;7.210;2022-09-12T02:18:51;9.70;99.90
56308;DHT22;42217;50.422;7.210;2022-09-12T02:21:19;9.70;99.90
56308;DHT22;42217;50.422;7.210;2022-09-12T02:23:56;9.70;99.90
56308;DHT22;42217;50.422;7.210;2022-09-12T02:26:35;9.70;99.90
56308;DHT22;42217;50.422;7.210;2022-09-12T02:29:03;9.50;99.90
56308;DHT22;42217;50.422;7.210;2022-09-12T02:31:44;9.60;99.90
56308;DHT22;42217;50.422;7.210;2022-09-12T02:34:25;9.50;99.90
56308;DHT22;42217;50.422;7.210;2022-09-12T02:39:48;9.50;99.90
56308;DHT22;42217;50.422;7.210;2022-09-12T02:42:13;9.50;99.90
56308;DHT22;42217;50.422;7.210;2022-09-12T02:44:39;9.70;99.90
56308;DHT22;42217;50.422;7.210;2022-09-12T02:47:14;9.70;99.90
56308;DHT22;42217;50.422;7.210;2022-09-12T02:49:42;10.00;99.90
56308;DHT22;42217;50.422;7.210;2022-09-12T02:52:08;10.30;99.90
56308;DHT22;42217;50.422;7.210;2022-09-12T02:54:34;10.50;99.90
56308;DHT22;42217;50.422;7.210;2022-09-12T02:57:02;10.40;99.90
56308;DHT22;42217;50.422;7.210;2022-09-12T02:59:28;10.20;99.90
56308;DHT22;42217;50.422;7.210;2022-09-12T03:07:55;9.80;99.90
56308;DHT22;42217;50.422;7.210;2022-09-12T03:10:42;10.10;99.90
56308;DHT22;42217;50.422;7.210;2022-09-12T03:15:48;9.90;99.90
56308;DHT22;42217;50.422;7.210;2022-09-12T03:21:20;9.90;99.90
56308;DHT22;42217;50.422;7.210;2022-09-12T03:24:16;9.90;99.90
56308;DHT22;42217;50.422;7.210;2022-09-12T03:29:47;9.60;99.90
56308;DHT22;42217;50.422;7.210;2022-09-12T03:32:15;9.40;99.90
56308;DHT22;42217;50.422;7.210;2022-09-12T03:34:40;9.40;99.90
56308;DHT22;42217;50.422;7.210;2022-09-12T03:37:06;9.30;99.90
56308;DHT22;42217;50.422;7.210;2022-09-12T03:39:33;9.30;99.90
56308;DHT22;42217;50.422;7.210;2022-09-12T03:41:58;9.30;99.90
56308;DHT22;42217;50.422;7.210;2022-09-12T03:44:24;9.40;99.90
56308;DHT22;42217;50.422;7.210;2022-09-12T03:46:50;9.50;99.90
56308;DHT22;42217;50.422;7.210;2022-09-12T03:49:16;9.50;99.90
56308;DHT22;42217;50.422;7.210;2022-09-12T03:51:42;9.40;99.90
56308;DHT22;42217;50.422;7.210;2022-09-12T03:54:08;9.40;99.90
56308;DHT22;42217;50.422;7.210;2022-09-12T03:56:34;9.40;99.90
56308;DHT22;42217;50.422;7.210;2022-09-12T03:59:00;9.50;99.90
56308;DHT22;42217;50.422;7.210;2022-09-12T04:01:25;9.40;99.90
56308;DHT22;42217;50.422;7.210;2022-09-12T04:03:51;9.40;99.90
56308;DHT22;42217;50.422;7.210;2022-09-12T04:06:19;9.50;99.90
56308;DHT22;42217;50.422;7.210;2022-09-12T04:08:53;9.50;99.90
56308;DHT22;42217;50.422;7.210;2022-09-12T04:11:20;9.70;99.90
56308;DHT22;42217;50.422;7.210;2022-09-12T04:13:47;9.80;99.90
56308;DHT22;42217;50.422;7.210;2022-09-12T04:16:14;10.00;99.90
56308;DHT22;42217;50.422;7.210;2022-09-12T04:18:40;10.00;99.90
56308;DHT22;42217;50.422;7.210;2022-09-12T04:21:12;9.90;99.90
56308;DHT22;42217;50.422;7.210;2022-09-12T04:23:38;9.90;99.90
56308;DHT22;42217;50.422;7.210;2022-09-12T04:26:05;9.80;99.90
56308;DHT22;42217;50.422;7.210;2022-09-12T04:28:35;9.60;99.90
56308;DHT22;42217;50.422;7.210;2022-09-12T04:31:12;9.80;99.90
56308;DHT22;42217;50.422;7.210;2022-09-12T04:33:40;10.00;99.90
56308;DHT22;42217;50.422;7.210;2022-09-12T04:36:08;10.30;99.90
56308;DHT22;42217;50.422;7.210;2022-09-12T04:38:35;10.50;99.90
56308;DHT22;42217;50.422;7.210;2022-09-12T04:41:12;10.60;99.90
56308;DHT22;42217;50.422;7.210;2022-09-12T04:43:39;10.70;99.90
56308;DHT22;42217;50.422;7.210;2022-09-12T04:46:09;10.60;99.90
56308;DHT22;42217;50.422;7.210;2022-09-12T04:48:35;10.60;99.90
56308;DHT22;42217;50.422;7.210;2022-09-12T04:51:10;10.70;99.90
56308;DHT22;42217;50.422;7.210;2022-09-12T04:53:37;10.90;99.90
56308;DHT22;42217;50.422;7.210;2022-09-12T04:56:07;10.80;99.90
56308;DHT22;42217;50.422;7.210;2022-09-12T04:58:34;10.70;99.90
56308;DHT22;42217;50.422;7.210;2022-09-12T05:01:08;10.70;99.90
56308;DHT22;42217;50.422;7.210;2022-09-12T05:03:34;10.70;99.90
56308;DHT22;42217;50.422;7.210;2022-09-12T05:06:05;10.80;99.90
56308;DHT22;42217;50.422;7.210;2022-09-12T05:08:32;10.90;99.90
56308;DHT22;42217;50.422;7.210;2022-09-12T05:11:02;11.00;99.90
56308;DHT22;42217;50.422;7.210;2022-09-12T05:13:29;10.90;99.90
56308;DHT22;42217;50.422;7.210;2022-09-12T05:15:57;10.70;99.90
56308;DHT22;42217;50.422;7.210;2022-09-12T05:18:23;10.40;99.90
56308;DHT22;42217;50.422;7.210;2022-09-12T05:20:51;10.40;99.90
56308;DHT22;42217;50.422;7.210;2022-09-12T05:23:17;10.70;99.90
56308;DHT22;42217;50.422;7.210;2022-09-12T05:25:51;10.90;99.90
56308;DHT22;42217;50.422;7.210;2022-09-12T05:28:18;11.00;99.90
56308;DHT22;42217;50.422;7.210;2022-09-12T05:30:43;11.10;99.90
56308;DHT22;42217;50.422;7.210;2022-09-12T05:33:10;11.10;99.90
56308;DHT22;42217;50.422;7.210;2022-09-12T05:35:36;11.20;99.90
56308;DHT22;42217;50.422;7.210;2022-09-12T05:38:03;11.40;99.90
56308;DHT22;42217;50.422;7.210;2022-09-12T05:40:29;11.50;99.90
56308;DHT22;42217;50.422;7.210;2022-09-12T05:42:55;11.60;99.90
56308;DHT22;42217;50.422;7.210;2022-09-12T05:45:20;11.70;99.90
56308;DHT22;42217;50.422;7.210;2022-09-12T05:47:46;11.70;99.90
56308;DHT22;42217;50.422;7.210;2022-09-12T05:50:12;11.90;99.90
56308;DHT22;42217;50.422;7.210;2022-09-12T05:52:38;11.90;99.90
56308;DHT22;42217;50.422;7.210;2022-09-12T05:55:04;12.00;99.90
56308;DHT22;42217;50.422;7.210;2022-09-12T05:57:30;12.20;99.90
56308;DHT22;42217;50.422;7.210;2022-09-12T05:59:55;12.30;99.90
56308;DHT22;42217;50.422;7.210;2022-09-12T06:02:21;12.40;99.90
56308;DHT22;42217;50.422;7.210;2022-09-12T06:04:47;12.50;99.90
56308;DHT22;42217;50.422;7.210;2022-09-12T06:07:13;12.60;99.90
56308;DHT22;42217;50.422;7.210;2022-09-12T06:09:39;12.70;99.90
56308;DHT22;42217;50.422;7.210;2022-09-12T06:12:05;12.70;99.90
56308;DHT22;42217;50.422;7.210;2022-09-12T06:14:32;12.80;99.90
56308;DHT22;42217;50.422;7.210;2022-09-12T06:16:58;12.90;99.90
56308;DHT22;42217;50.422;7.210;2022-09-12T06:19:24;13.00;99.90
56308;DHT22;42217;50.422;7.210;2022-09-12T06:21:52;13.10;99.90
56308;DHT22;42217;50.422;7.210;2022-09-12T06:24:19;13.20;99.90
56308;DHT22;42217;50.422;7.210;2022-09-12T06:26:46;13.20;99.90
56308;DHT22;42217;50.422;7.210;2022-09-12T06:29:12;13.30;99.90
56308;DHT22;42217;50.422;7.210;2022-09-12T06:31:40;13.40;99.90
56308;DHT22;42217;50.422;7.210;2022-09-12T06:34:07;13.40;99.90
56308;DHT22;42217;50.422;7.210;2022-09-12T06:36:37;13.40;99.90
56308;DHT22;42217;50.422;7.210;2022-09-12T06:39:08;13.40;99.90
56308;DHT22;42217;50.422;7.210;2022-09-12T06:41:35;13.50;99.90
56308;DHT22;42217;50.422;7.210;2022-09-12T06:44:01;13.70;99.90
56308;DHT22;42217;50.422;7.210;2022-09-12T06:46:27;13.70;99.90
56308;DHT22;42217;50.422;7.210;2022-09-12T06:48:57;13.90;99.90
56308;DHT22;42217;50.422;7.210;2022-09-12T06:51:24;14.00;99.90
56308;DHT22;42217;50.422;7.210;2022-09-12T06:53:53;14.10;99.90
56308;DHT22;42217;50.422;7.210;2022-09-12T06:56:20;14.20;99.90
56308;DHT22;42217;50.422;7.210;2022-09-12T06:58:47;14.30;99.90
56308;DHT22;42217;50.422;7.210;2022-09-12T07:01:14;14.40;99.90
56308;DHT22;42217;50.422;7.210;2022-09-12T07:03:41;14.60;99.90
56308;DHT22;42217;50.422;7.210;2022-09-12T07:06:09;14.80;99.90
56308;DHT22;42217;50.422;7.210;2022-09-12T07:08:36;15.00;99.90
56308;DHT22;42217;50.422;7.210;2022-09-12T07:11:19;15.10;99.90
56308;DHT22;42217;50.422;7.210;2022-09-12T07:13:47;15.30;99.90
56308;DHT22;42217;50.422;7.210;2022-09-12T07:16:13;15.50;99.90
56308;DHT22;42217;50.422;7.210;2022-09-12T07:18:39;15.70;99.90
56308;DHT22;42217;50.422;7.210;2022-09-12T07:21:07;16.10;99.90
56308;DHT22;42217;50.422;7.210;2022-09-12T07:23:34;16.50;99.90
56308;DHT22;42217;50.422;7.210;2022-09-12T07:26:00;16.70;99.90
56308;DHT22;42217;50.422;7.210;2022-09-12T07:28:28;16.90;99.90
56308;DHT22;42217;50.422;7.210;2022-09-12T07:30:55;17.00;99.90
56308;DHT22;42217;50.422;7.210;2022-09-12T07:33:22;17.30;99.90
56308;DHT22;42217;50.422;7.210;2022-09-12T07:35:48;17.50;99.90
56308;DHT22;42217;50.422;7.210;2022-09-12T07:38:17;17.70;99.90
56308;DHT22;42217;50.422;7.210;2022-09-12T07:40:43;17.80;99.20
56308;DHT22;42217;50.422;7.210;2022-09-12T07:43:09;17.90;96.60
56308;DHT22;42217;50.422;7.210;2022-09-12T07:45:34;18.00;93.70
56308;DHT22;42217;50.422;7.210;2022-09-12T07:48:00;18.10;93.20
56308;DHT22;42217;50.422;7.210;2022-09-12T07:50:26;18.10;92.30
56308;DHT22;42217;50.422;7.210;2022-09-12T07:52:55;18.20;92.60
56308;DHT22;42217;50.422;7.210;2022-09-12T07:55:21;18.40;91.70
56308;DHT22;42217;50.422;7.210;2022-09-12T07:57:51;18.50;92.70
56308;DHT22;42217;50.422;7.210;2022-09-12T08:00:17;18.60;91.50
56308;DHT22;42217;50.422;7.210;2022-09-12T08:02:43;18.80;90.80
56308;DHT22;42217;50.422;7.210;2022-09-12T08:05:09;19.00;86.60
56308;DHT22;42217;50.422;7.210;2022-09-12T08:07:35;19.00;68.60
56308;DHT22;42217;50.422;7.210;2022-09-12T08:10:01;19.20;71.80
56308;DHT22;42217;50.422;7.210;2022-09-12T08:12:27;19.30;80.50
56308;DHT22;42217;50.422;7.210;2022-09-12T08:14:53;19.40;81.40
56308;DHT22;42217;50.422;7.210;2022-09-12T08:17:19;19.50;65.30
56308;DHT22;42217;50.422;7.210;2022-09-12T08:19:45;19.60;54.50
56308;DHT22;42217;50.422;7.210;2022-09-12T08:22:11;19.70;56.10
56308;DHT22;42217;50.422;7.210;2022-09-12T08:24:37;19.80;58.50
56308;DHT22;42217;50.422;7.210;2022-09-12T08:27:05;20.00;52.30
56308;DHT22;42217;50.422;7.210;2022-09-12T08:29:31;20.20;57.10
56308;DHT22;42217;50.422;7.210;2022-09-12T08:31:56;20.30;48.20
56308;DHT22;42217;50.422;7.210;2022-09-12T08:34:22;20.40;46.00
56308;DHT22;42217;50.422;7.210;2022-09-12T08:36:49;20.50;23.80
56308;DHT22;42217;50.422;7.210;2022-09-12T08:39:15;20.60;15.20
56308;DHT22;42217;50.422;7.210;2022-09-12T08:41:46;20.50;12.60
56308;DHT22;42217;50.422;7.210;2022-09-12T08:47:19;20.40;25.00
56308;DHT22;42217;50.422;7.210;2022-09-12T08:55:40;20.60;6.40
56308;DHT22;42217;50.422;7.210;2022-09-12T08:58:13;20.50;1.00
56308;DHT22;42217;50.422;7.210;2022-09-12T09:06:00;20.40;7.50
56308;DHT22;42217;50.422;7.210;2022-09-12T09:14:41;20.50;5.00
56308;DHT22;42217;50.422;7.210;2022-09-12T09:19:52;20.40;7.50
56308;DHT22;42217;50.422;7.210;2022-09-12T09:25:00;20.40;11.00
56308;DHT22;42217;50.422;7.210;2022-09-12T09:29:55;20.30;14.00
56308;DHT22;42217;50.422;7.210;2022-09-12T09:32:40;20.20;11.90
56308;DHT22;42217;50.422;7.210;2022-09-12T09:35:42;20.20;9.60
56308;DHT22;42217;50.422;7.210;2022-09-12T09:41:06;20.20;2.40
56308;DHT22;42217;50.422;7.210;2022-09-12T09:43:37;20.10;10.90
56308;DHT22;42217;50.422;7.210;2022-09-12T09:46:04;20.00;11.70
56308;DHT22;42217;50.422;7.210;2022-09-12T09:48:33;20.00;6.70
56308;DHT22;42217;50.422;7.210;2022-09-12T09:51:02;20.10;4.40
56308;DHT22;42217;50.422;7.210;2022-09-12T09:53:44;20.10;9.00
56308;DHT22;42217;50.422;7.210;2022-09-12T09:56:22;20.20;2.60
56308;DHT22;42217;50.422;7.210;2022-09-12T09:58:50;20.10;6.80
56308;DHT22;42217;50.422;7.210;2022-09-12T10:01:17;20.10;3.90
56308;DHT22;42217;50.422;7.210;2022-09-12T10:03:48;20.10;1.00
56308;DHT22;42217;50.422;7.210;2022-09-12T10:06:35;20.10;5.50
56308;DHT22;42217;50.422;7.210;2022-09-12T10:11:40;20.40;1.90
56308;DHT22;42217;50.422;7.210;2022-09-12T10:14:31;20.40;1.00
56308;DHT22;42217;50.422;7.210;2022-09-12T10:17:00;20.40;1.00
56308;DHT22;42217;50.422;7.210;2022-09-12T10:19:37;20.40;1.00
56308;DHT22;42217;50.422;7.210;2022-09-12T10:22:05;20.40;1.00
56308;DHT22;42217;50.422;7.210;2022-09-12T10:24:40;20.40;1.00
56308;DHT22;42217;50.422;7.210;2022-09-12T10:27:13;20.40;1.00
56308;DHT22;42217;50.422;7.210;2022-09-12T10:32:12;20.40;1.00
56308;DHT22;42217;50.422;7.210;2022-09-12T10:34:44;20.40;1.00
56308;DHT22;42217;50.422;7.210;2022-09-12T10:37:24;20.50;1.00
56308;DHT22;42217;50.422;7.210;2022-09-12T10:39:52;20.50;1.00
56308;DHT22;42217;50.422;7.210;2022-09-12T10:42:51;20.70;1.00
56308;DHT22;42217;50.422;7.210;2022-09-12T10:45:31;20.80;1.00
56308;DHT22;42217;50.422;7.210;2022-09-12T10:48:01;20.90;1.00
56308;DHT22;42217;50.422;7.210;2022-09-12T10:50:28;21.10;1.00
56308;DHT22;42217;50.422;7.210;2022-09-12T10:53:17;21.10;1.00
56308;DHT22;42217;50.422;7.210;2022-09-12T10:56:04;21.10;1.00
56308;DHT22;42217;50.422;7.210;2022-09-12T11:09:40;21.50;1.00
56308;DHT22;42217;50.422;7.210;2022-09-12T11:23:42;21.90;1.00
56308;DHT22;42217;50.422;7.210;2022-09-12T11:32:12;22.30;1.00
56308;DHT22;42217;50.422;7.210;2022-09-12T11:45:42;22.70;1.00
56308;DHT22;42217;50.422;7.210;2022-09-12T11:48:39;22.60;1.00
56308;DHT22;42217;50.422;7.210;2022-09-12T11:51:18;22.60;1.00
56308;DHT22;42217;50.422;7.210;2022-09-12T11:53:50;22.60;1.00
56308;DHT22;42217;50.422;7.210;2022-09-12T11:56:18;22.70;1.00
56308;DHT22;42217;50.422;7.210;2022-09-12T11:58:53;22.70;1.00
56308;DHT22;42217;50.422;7.210;2022-09-12T12:01:26;22.70;99.90
56308;DHT22;42217;50.422;7.210;2022-09-12T12:03:53;22.80;99.90
56308;DHT22;42217;50.422;7.210;2022-09-12T12:06:29;22.90;99.90
56308;DHT22;42217;50.422;7.210;2022-09-12T12:08:56;22.90;99.90
56308;DHT22;42217;50.422;7.210;2022-09-12T12:14:11;23.00;99.90
56308;DHT22;42217;50.422;7.210;2022-09-12T12:16:39;23.10;99.90
56308;DHT22;42217;50.422;7.210;2022-09-12T12:19:35;23.30;99.90
56308;DHT22;42217;50.422;7.210;2022-09-12T12:22:06;23.60;99.90
56308;DHT22;42217;50.422;7.210;2022-09-12T12:24:32;23.70;99.90
56308;DHT22;42217;50.422;7.210;2022-09-12T12:27:04;23.70;99.90
56308;DHT22;42217;50.422;7.210;2022-09-12T12:29:41;23.70;1.00
56308;DHT22;42217;50.422;7.210;2022-09-12T12:34:38;23.80;44.30
56308;DHT22;42217;50.422;7.210;2022-09-12T12:47:58;24.60;93.20
56308;DHT22;42217;50.422;7.210;2022-09-12T12:50:27;24.60;82.90
56308;DHT22;42217;50.422;7.210;2022-09-12T12:53:17;24.80;99.90
56308;DHT22;42217;50.422;7.210;2022-09-12T12:58:37;24.60;29.10
56308;DHT22;42217;50.422;7.210;2022-09-12T13:01:13;24.70;99.90
56308;DHT22;42217;50.422;7.210;2022-09-12T13:03:43;24.80;99.90
56308;DHT22;42217;50.422;7.210;2022-09-12T13:06:35;25.00;1.00
56308;DHT22;42217;50.422;7.210;2022-09-12T13:09:04;25.10;99.90
56308;DHT22;42217;50.422;7.210;2022-09-12T13:11:39;25.30;99.90
56308;DHT22;42217;50.422;7.210;2022-09-12T13:14:46;25.30;99.90
56308;DHT22;42217;50.422;7.210;2022-09-12T13:16:54;25.30;1.00
56308;DHT22;42217;50.422;7.210;2022-09-12T13:19:39;25.50;99.90
56308;DHT22;42217;50.422;7.210;2022-09-12T13:22:07;25.90;25.30
56308;DHT22;42217;50.422;7.210;2022-09-12T13:24:44;26.10;99.90
56308;DHT22;42217;50.422;7.210;2022-09-12T13:27:23;26.30;99.90
56308;DHT22;42217;50.422;7.210;2022-09-12T13:30:13;26.30;99.90
56308;DHT22;42217;50.422;7.210;2022-09-12T13:32:40;26.50;99.90
56308;DHT22;42217;50.422;7.210;2022-09-12T13:35:11;26.40;99.90
56308;DHT22;42217;50.422;7.210;2022-09-12T13:38:03;26.30;99.90
56308;DHT22;42217;50.422;7.210;2022-09-12T13:40:39;26.80;57.90
56308;DHT22;42217;50.422;7.210;2022-09-12T13:43:15;28.20;99.90
56308;DHT22;42217;50.422;7.210;2022-09-12T13:45:44;29.40;95.50
56308;DHT22;42217;50.422;7.210;2022-09-12T13:48:22;30.30;1.00
56308;DHT22;42217;50.422;7.210;2022-09-12T13:51:00;31.10;1.00
56308;DHT22;42217;50.422;7.210;2022-09-12T13:53:41;31.40;1.00
56308;DHT22;42217;50.422;7.210;2022-09-12T13:56:07;32.00;99.90
56308;DHT22;42217;50.422;7.210;2022-09-12T13:58:33;32.60;99.90
56308;DHT22;42217;50.422;7.210;2022-09-12T14:03:54;32.50;99.90
56308;DHT22;42217;50.422;7.210;2022-09-12T14:09:36;32.80;99.90
56308;DHT22;42217;50.422;7.210;2022-09-12T14:12:04;33.30;99.90
56308;DHT22;42217;50.422;7.210;2022-09-12T14:14:39;33.60;99.90
56308;DHT22;42217;50.422;7.210;2022-09-12T14:19:57;32.60;99.90
56308;DHT22;42217;50.422;7.210;2022-09-12T14:22:26;32.70;99.90
56308;DHT22;42217;50.422;7.210;2022-09-12T14:24:55;32.90;99.90
56308;DHT22;42217;50.422;7.210;2022-09-12T14:27:24;32.50;99.90
56308;DHT22;42217;50.422;7.210;2022-09-12T14:30:05;32.80;99.90
56308;DHT22;42217;50.422;7.210;2022-09-12T14:32:34;32.60;99.90
56308;DHT22;42217;50.422;7.210;2022-09-12T14:35:21;32.90;99.90
56308;DHT22;42217;50.422;7.210;2022-09-12T14:37:49;33.70;99.90
56308;DHT22;42217;50.422;7.210;2022-09-12T14:40:19;34.20;99.90
56308;DHT22;42217;50.422;7.210;2022-09-12T14:42:47;34.50;99.90
56308;DHT22;42217;50.422;7.210;2022-09-12T14:47:49;34.80;99.90
56308;DHT22;42217;50.422;7.210;2022-09-12T14:50:26;35.10;99.90
56308;DHT22;42217;50.422;7.210;2022-09-12T14:53:29;35.10;99.90
56308;DHT22;42217;50.422;7.210;2022-09-12T14:56:12;34.80;99.90
56308;DHT22;42217;50.422;7.210;2022-09-12T14:58:38;35.30;99.90
56308;DHT22;42217;50.422;7.210;2022-09-12T15:06:02;35.90;99.90
56308;DHT22;42217;50.422;7.210;2022-09-12T15:08:29;35.80;99.90
56308;DHT22;42217;50.422;7.210;2022-09-12T15:10:56;35.70;99.90
56308;DHT22;42217;50.422;7.210;2022-09-12T15:13:27;35.50;99.90
56308;DHT22;42217;50.422;7.210;2022-09-12T15:15:57;35.70;99.90
56308;DHT22;42217;50.422;7.210;2022-09-12T15:18:26;35.10;99.90
56308;DHT22;42217;50.422;7.210;2022-09-12T15:20:59;34.70;99.90
56308;DHT22;42217;50.422;7.210;2022-09-12T15:25:51;33.00;99.90
56308;DHT22;42217;50.422;7.210;2022-09-12T15:28:22;32.50;99.90
56308;DHT22;42217;50.422;7.210;2022-09-12T15:30:49;32.10;99.90
56308;DHT22;42217;50.422;7.210;2022-09-12T15:33:20;31.80;99.90
56308;DHT22;42217;50.422;7.210;2022-09-12T15:35:47;31.80;99.90
56308;DHT22;42217;50.422;7.210;2022-09-12T15:38:13;31.50;99.90
56308;DHT22;42217;50.422;7.210;2022-09-12T15:40:39;31.50;99.90
56308;DHT22;42217;50.422;7.210;2022-09-12T15:43:05;31.40;99.90
56308;DHT22;42217;50.422;7.210;2022-09-12T15:45:33;31.00;99.90
56308;DHT22;42217;50.422;7.210;2022-09-12T15:47:59;31.20;99.90
56308;DHT22;42217;50.422;7.210;2022-09-12T15:50:26;31.30;99.90
56308;DHT22;42217;50.422;7.210;2022-09-12T15:52:53;31.40;99.90
56308;DHT22;42217;50.422;7.210;2022-09-12T15:55:26;31.00;99.90
56308;DHT22;42217;50.422;7.210;2022-09-12T15:57:52;30.30;99.90
56308;DHT22;42217;50.422;7.210;2022-09-12T16:00:19;29.90;99.90
56308;DHT22;42217;50.422;7.210;2022-09-12T16:02:46;29.30;99.90
56308;DHT22;42217;50.422;7.210;2022-09-12T16:05:16;29.50;1.00
56308;DHT22;42217;50.422;7.210;2022-09-12T16:07:43;30.40;99.90
56308;DHT22;42217;50.422;7.210;2022-09-12T16:10:17;30.80;99.90
56308;DHT22;42217;50.422;7.210;2022-09-12T16:12:43;31.30;99.90
56308;DHT22;42217;50.422;7.210;2022-09-12T16:15:16;31.40;99.90
56308;DHT22;42217;50.422;7.210;2022-09-12T16:17:42;31.00;99.90
56308;DHT22;42217;50.422;7.210;2022-09-12T16:20:08;30.10;99.90
56308;DHT22;42217;50.422;7.210;2022-09-12T16:22:34;29.20;1.00
56308;DHT22;42217;50.422;7.210;2022-09-12T16:25:00;28.80;1.00
56308;DHT22;42217;50.422;7.210;2022-09-12T16:27:25;28.40;1.00
56308;DHT22;42217;50.422;7.210;2022-09-12T16:29:51;28.20;48.80
56308;DHT22;42217;50.422;7.210;2022-09-12T16:32:17;27.90;99.90
56308;DHT22;42217;50.422;7.210;2022-09-12T16:34:43;27.30;99.90
56308;DHT22;42217;50.422;7.210;2022-09-12T16:37:09;26.50;82.10
56308;DHT22;42217;50.422;7.210;2022-09-12T16:39:35;25.80;1.00
56308;DHT22;42217;50.422;7.210;2022-09-12T16:42:00;25.40;99.90
56308;DHT22;42217;50.422;7.210;2022-09-12T16:44:26;25.00;99.90
56308;DHT22;42217;50.422;7.210;2022-09-12T16:46:52;24.90;90.50
56308;DHT22;42217;50.422;7.210;2022-09-12T16:49:18;24.90;99.90
56308;DHT22;42217;50.422;7.210;2022-09-12T16:51:44;24.60;99.90
56308;DHT22;42217;50.422;7.210;2022-09-12T16:54:13;24.40;1.00
56308;DHT22;42217;50.422;7.210;2022-09-12T16:56:39;24.20;1.00
56308;DHT22;42217;50.422;7.210;2022-09-12T16:59:05;24.00;99.90
56308;DHT22;42217;50.422;7.210;2022-09-12T17:01:31;24.00;1.00
56308;DHT22;42217;50.422;7.210;2022-09-12T17:03:59;23.90;86.60
56308;DHT22;42217;50.422;7.210;2022-09-12T17:06:26;23.80;99.90
56308;DHT22;42217;50.422;7.210;2022-09-12T17:08:54;23.50;32.90
56308;DHT22;42217;50.422;7.210;2022-09-12T17:11:29;23.40;99.90
56308;DHT22;42217;50.422;7.210;2022-09-12T17:13:57;23.20;1.00
56308;DHT22;42217;50.422;7.210;2022-09-12T17:16:23;23.00;1.00
56308;DHT22;42217;50.422;7.210;2022-09-12T17:18:51;22.90;25.70
56308;DHT22;42217;50.422;7.210;2022-09-12T17:21:17;22.70;98.70
56308;DHT22;42217;50.422;7.210;2022-09-12T17:23:43;22.60;99.90
56308;DHT22;42217;50.422;7.210;2022-09-12T17:26:10;22.40;99.90
56308;DHT22;42217;50.422;7.210;2022-09-12T17:28:37;22.10;99.90
56308;DHT22;42217;50.422;7.210;2022-09-12T17:31:06;21.90;99.90
56308;DHT22;42217;50.422;7.210;2022-09-12T17:33:32;21.80;99.90
56308;DHT22;42217;50.422;7.210;2022-09-12T17:36:04;21.50;99.90
56308;DHT22;42217;50.422;7.210;2022-09-12T17:38:31;21.20;99.90
56308;DHT22;42217;50.422;7.210;2022-09-12T17:41:06;21.20;1.00
56308;DHT22;42217;50.422;7.210;2022-09-12T17:43:33;21.00;1.00
56308;DHT22;42217;50.422;7.210;2022-09-12T17:46:04;20.70;1.00
56308;DHT22;42217;50.422;7.210;2022-09-12T17:48:30;20.50;1.00
56308;DHT22;42217;50.422;7.210;2022-09-12T17:50:56;20.30;1.00
56308;DHT22;42217;50.422;7.210;2022-09-12T17:53:23;20.10;1.00
56308;DHT22;42217;50.422;7.210;2022-09-12T17:55:50;19.90;1.00
56308;DHT22;42217;50.422;7.210;2022-09-12T17:58:16;19.70;1.00
56308;DHT22;42217;50.422;7.210;2022-09-12T18:00:41;19.50;1.00
56308;DHT22;42217;50.422;7.210;2022-09-12T18:03:25;19.30;1.00
56308;DHT22;42217;50.422;7.210;2022-09-12T18:05:53;19.10;1.00
56308;DHT22;42217;50.422;7.210;2022-09-12T18:08:20;19.00;1.00
56308;DHT22;42217;50.422;7.210;2022-09-12T18:10:46;18.90;1.00
56308;DHT22;42217;50.422;7.210;2022-09-12T18:13:12;18.70;4.80
56308;DHT22;42217;50.422;7.210;2022-09-12T18:15:38;18.70;8.80
56308;DHT22;42217;50.422;7.210;2022-09-12T18:18:04;18.60;10.80
56308;DHT22;42217;50.422;7.210;2022-09-12T18:20:31;18.40;14.60
56308;DHT22;42217;50.422;7.210;2022-09-12T18:22:57;18.30;14.80
56308;DHT22;42217;50.422;7.210;2022-09-12T18:25:25;18.30;19.30
56308;DHT22;42217;50.422;7.210;2022-09-12T18:27:51;18.10;24.20
56308;DHT22;42217;50.422;7.210;2022-09-12T18:30:17;18.00;27.30